createdAt,value
2023-01-17T00:01:34.229Z,4.47
2023-01-17T00:04:20.502Z,3.42
2023-01-17T00:07:05.944Z,4.10
2023-01-17T00:09:51.531Z,3.85
2023-01-17T00:12:18.764Z,2.20
2023-01-17T00:14:45.699Z,3.80
2023-01-17T00:17:12.982Z,4.40
2023-01-17T00:19:59.034Z,3.47
2023-01-17T00:22:46.944Z,5.10
2023-01-17T00:26:00.142Z,4.78
2023-01-17T00:28:27.470Z,4.18
2023-01-17T00:30:54.299Z,2.53
2023-01-17T00:33:22.922Z,8.00
2023-01-17T00:35:50.750Z,4.40
2023-01-17T00:38:22.664Z,5.22
2023-01-17T00:40:50.437Z,4.85
2023-01-17T00:43:41.191Z,4.47
2023-01-17T00:46:26.984Z,2.45
2023-01-17T00:49:12.201Z,4.10
2023-01-17T00:51:57.811Z,4.95
2023-01-17T00:54:43.430Z,6.70
2023-01-17T00:57:28.791Z,2.43
2023-01-17T01:00:14.313Z,4.22
2023-01-17T01:02:59.710Z,4.53
2023-01-17T01:05:45.054Z,3.90
2023-01-17T01:08:46.862Z,5.53
2023-01-17T01:11:36.262Z,2.38
2023-01-17T01:14:22.850Z,2.92
2023-01-17T01:17:08.548Z,3.08
2023-01-17T01:19:54.700Z,2.17
2023-01-17T01:22:40.392Z,5.65
2023-01-17T01:25:26.662Z,3.53
2023-01-17T01:28:12.144Z,4.50
2023-01-17T01:30:57.633Z,6.70
2023-01-17T01:33:24.680Z,3.40
2023-01-17T01:35:54.116Z,4.95
2023-01-17T01:38:25.615Z,3.97
2023-01-17T01:40:55.091Z,8.70
2023-01-17T01:43:47.087Z,2.70
2023-01-17T01:46:38.315Z,3.40
2023-01-17T01:49:08.631Z,3.97
2023-01-17T01:51:41.505Z,2.95
2023-01-17T01:54:15.007Z,4.65
2023-01-17T01:56:42.708Z,3.22
2023-01-17T01:59:13.726Z,3.25
2023-01-17T02:01:40.768Z,4.50
2023-01-17T02:04:12.042Z,5.50
2023-01-17T02:06:43.515Z,3.67
2023-01-17T02:09:12.707Z,4.32
2023-01-17T02:11:41.600Z,5.75
2023-01-17T02:14:08.807Z,5.28
2023-01-17T02:17:13.051Z,3.03
2023-01-17T02:20:17.398Z,3.55
2023-01-17T02:23:22.462Z,2.33
2023-01-17T02:26:23.445Z,4.13
2023-01-17T02:29:24.182Z,8.90
2023-01-17T02:31:57.175Z,5.15
2023-01-17T02:34:49.248Z,5.32
2023-01-17T02:37:27.298Z,5.38
2023-01-17T02:40:10.199Z,4.18
2023-01-17T02:42:42.960Z,3.22
2023-01-17T02:45:16.368Z,5.15
2023-01-17T02:47:43.340Z,7.68
2023-01-17T02:50:15.007Z,3.92
2023-01-17T02:52:59.871Z,4.63
2023-01-17T02:55:45.566Z,3.53
2023-01-17T02:58:18.488Z,4.22
2023-01-17T03:01:20.021Z,4.60
2023-01-17T03:04:05.251Z,3.40
2023-01-17T03:06:51.292Z,2.70
2023-01-17T03:09:19.615Z,3.90
2023-01-17T03:11:47.038Z,3.90
2023-01-17T03:14:14.123Z,4.32
2023-01-17T03:16:41.741Z,5.40
2023-01-17T03:19:09.880Z,4.75
2023-01-17T03:21:36.781Z,6.18
2023-01-17T03:24:03.821Z,4.25
2023-01-17T03:26:31.803Z,4.45
2023-01-17T03:28:58.792Z,3.58
2023-01-17T03:31:25.892Z,2.95
2023-01-17T03:33:52.818Z,5.00
2023-01-17T03:36:20.299Z,3.00
2023-01-17T03:38:47.160Z,2.78
2023-01-17T03:41:14.039Z,3.38
2023-01-17T03:43:40.878Z,2.78
2023-01-17T03:46:21.749Z,4.50
2023-01-17T03:48:49.168Z,2.33
2023-01-17T03:51:16.233Z,3.00
2023-01-17T03:53:43.419Z,2.60
2023-01-17T03:56:10.247Z,6.68
2023-01-17T03:58:37.097Z,5.13
2023-01-17T04:01:04.212Z,6.28
2023-01-17T04:03:31.380Z,5.10
2023-01-17T04:05:58.273Z,3.13
2023-01-17T04:08:25.133Z,2.50
2023-01-17T04:10:52.003Z,2.88
2023-01-17T04:13:18.887Z,2.83
2023-01-17T04:15:48.460Z,6.57
2023-01-17T04:18:17.611Z,4.85
2023-01-17T04:20:44.607Z,4.38
2023-01-17T04:23:11.546Z,5.00
2023-01-17T04:25:38.401Z,3.47
2023-01-17T04:28:05.439Z,3.28
2023-01-17T04:30:33.007Z,5.22
2023-01-17T04:33:00.532Z,5.40
2023-01-17T04:35:31.092Z,5.22
2023-01-17T04:37:58.325Z,4.35
2023-01-17T04:40:25.341Z,3.72
2023-01-17T04:42:52.539Z,3.60
2023-01-17T04:45:19.385Z,2.90
2023-01-17T04:47:46.188Z,3.17
2023-01-17T04:50:13.076Z,5.70
2023-01-17T04:52:39.968Z,4.47
2023-01-17T04:55:07.397Z,3.65
2023-01-17T04:57:34.274Z,2.85
2023-01-17T05:00:01.109Z,5.43
2023-01-17T05:02:27.960Z,5.75
2023-01-17T05:04:54.807Z,4.07
2023-01-17T05:07:21.655Z,4.35
2023-01-17T05:09:48.442Z,3.67
2023-01-17T05:12:15.257Z,2.58
2023-01-17T05:14:42.221Z,2.85
2023-01-17T05:17:11.251Z,5.10
2023-01-17T05:19:38.206Z,3.35
2023-01-17T05:22:15.257Z,4.43
2023-01-17T05:24:43.834Z,3.83
2023-01-17T05:27:11.744Z,4.75
2023-01-17T05:29:39.074Z,5.18
2023-01-17T05:32:06.636Z,3.85
2023-01-17T05:34:34.259Z,5.13
2023-01-17T05:37:01.122Z,5.72
2023-01-17T05:39:28.046Z,3.50
2023-01-17T05:41:54.852Z,3.70
2023-01-17T05:44:22.039Z,5.25
2023-01-17T05:46:48.895Z,5.97
2023-01-17T05:49:15.870Z,5.03
2023-01-17T05:51:42.711Z,4.80
2023-01-17T05:54:09.598Z,4.30
2023-01-17T05:56:36.443Z,3.80
2023-01-17T05:59:03.311Z,6.82
2023-01-17T06:01:30.168Z,3.38
2023-01-17T06:03:56.993Z,4.22
2023-01-17T06:06:23.852Z,4.97
2023-01-17T06:08:50.678Z,5.72
2023-01-17T06:11:18.707Z,6.30
2023-01-17T06:13:45.649Z,4.68
2023-01-17T06:16:12.503Z,4.57
2023-01-17T06:18:39.359Z,4.57
2023-01-17T06:21:07.824Z,4.97
2023-01-17T06:23:34.799Z,4.07
2023-01-17T06:26:04.898Z,5.18
2023-01-17T06:28:31.785Z,3.95
2023-01-17T06:30:59.929Z,5.10
2023-01-17T06:33:27.140Z,4.60
2023-01-17T06:35:54.132Z,5.25
2023-01-17T06:38:21.430Z,3.97
2023-01-17T06:40:48.350Z,7.75
2023-01-17T06:43:15.531Z,5.60
2023-01-17T06:45:42.397Z,6.57
2023-01-17T06:48:09.275Z,5.10
2023-01-17T06:50:36.121Z,4.45
2023-01-17T06:53:05.122Z,10.60
2023-01-17T06:55:33.788Z,4.07
2023-01-17T06:58:02.776Z,3.88
2023-01-17T07:00:31.496Z,3.83
2023-01-17T07:02:58.585Z,3.80
2023-01-17T07:05:25.885Z,3.83
2023-01-17T07:07:54.284Z,3.38
2023-01-17T07:10:22.076Z,6.05
2023-01-17T07:12:48.904Z,4.72
2023-01-17T07:15:15.819Z,6.32
2023-01-17T07:17:42.601Z,4.72
2023-01-17T07:20:10.024Z,4.22
2023-01-17T07:22:37.790Z,7.82
2023-01-17T07:25:05.163Z,9.38
2023-01-17T07:27:33.610Z,4.78
2023-01-17T07:30:00.791Z,4.60
2023-01-17T07:32:28.313Z,4.25
2023-01-17T07:34:57.652Z,4.63
2023-01-17T07:37:26.348Z,5.47
2023-01-17T07:39:54.540Z,9.23
2023-01-17T07:42:23.961Z,7.07
2023-01-17T07:44:51.118Z,6.05
2023-01-17T07:47:18.003Z,5.95
2023-01-17T07:49:45.015Z,4.20
2023-01-17T07:52:11.895Z,4.45
2023-01-17T07:54:39.675Z,3.70
2023-01-17T07:57:11.619Z,3.83
2023-01-17T07:59:38.521Z,6.82
2023-01-17T08:02:05.401Z,8.38
2023-01-17T08:04:35.204Z,8.25
2023-01-17T08:07:02.336Z,6.00
2023-01-17T08:09:29.272Z,4.60
2023-01-17T08:11:56.152Z,11.73
2023-01-17T08:14:23.046Z,6.32
2023-01-17T08:16:49.899Z,3.88
2023-01-17T08:19:17.372Z,5.15
2023-01-17T08:21:44.709Z,6.88
2023-01-17T08:24:14.937Z,4.45
2023-01-17T08:26:41.792Z,6.82
2023-01-17T08:29:09.639Z,7.10
2023-01-17T08:31:36.905Z,4.22
2023-01-17T08:34:04.580Z,3.80
2023-01-17T08:36:31.559Z,3.97
2023-01-17T08:38:58.984Z,4.80
2023-01-17T08:41:27.837Z,3.55
2023-01-17T08:43:54.870Z,5.13
2023-01-17T08:46:22.519Z,8.82
2023-01-17T08:48:53.939Z,3.38
2023-01-17T08:51:20.800Z,3.45
2023-01-17T08:53:48.579Z,5.97
2023-01-17T08:56:15.637Z,3.08
2023-01-17T08:58:42.524Z,3.40
2023-01-17T09:01:09.530Z,4.43
2023-01-17T09:03:38.413Z,6.95
2023-01-17T09:06:12.871Z,3.42
2023-01-17T09:08:40.308Z,4.13
2023-01-17T09:11:09.960Z,4.43
2023-01-17T09:13:37.622Z,3.75
2023-01-17T09:16:05.892Z,3.55
2023-01-17T09:18:34.297Z,4.20
2023-01-17T09:21:18.989Z,3.92
2023-01-17T09:23:46.583Z,5.22
2023-01-17T09:26:19.429Z,4.10
2023-01-17T09:28:46.498Z,9.18
2023-01-17T09:31:14.705Z,7.13
2023-01-17T09:33:42.983Z,3.97
2023-01-17T09:36:11.338Z,3.53
2023-01-17T09:38:40.084Z,5.85
2023-01-17T09:41:27.773Z,6.88
2023-01-17T09:43:59.835Z,4.60
2023-01-17T09:46:32.173Z,3.15
2023-01-17T09:49:02.220Z,4.00
2023-01-17T09:51:29.125Z,3.10
2023-01-17T09:53:56.240Z,3.25
2023-01-17T09:56:30.496Z,3.65
2023-01-17T09:59:08.995Z,5.40
2023-01-17T10:02:05.005Z,3.40
2023-01-17T10:04:52.176Z,4.90
2023-01-17T10:07:31.006Z,5.20
2023-01-17T10:10:20.798Z,8.70
2023-01-17T10:12:52.797Z,4.70
2023-01-17T10:15:44.726Z,3.88
2023-01-17T10:18:33.430Z,8.77
2023-01-17T10:21:00.474Z,4.13
2023-01-17T10:23:54.560Z,5.55
2023-01-17T10:26:25.860Z,3.10
2023-01-17T10:28:56.577Z,3.78
2023-01-17T10:31:31.046Z,4.13
2023-01-17T10:34:03.776Z,3.20
2023-01-17T10:36:39.661Z,6.15
2023-01-17T10:39:23.887Z,3.80
2023-01-17T10:42:07.288Z,5.03
2023-01-17T10:44:53.179Z,3.15
2023-01-17T10:47:22.526Z,3.13
2023-01-17T10:49:55.142Z,4.07
2023-01-17T10:52:59.025Z,5.20
2023-01-17T10:55:53.366Z,2.78
2023-01-17T11:01:17.922Z,2.75
2023-01-17T11:03:50.889Z,4.82
2023-01-17T11:06:19.393Z,3.00
2023-01-17T11:09:00.027Z,2.78
2023-01-17T11:11:32.490Z,3.60
2023-01-17T11:14:07.670Z,4.20
2023-01-17T11:16:35.892Z,2.63
2023-01-17T11:19:17.262Z,4.80
2023-01-17T11:22:05.988Z,6.93
2023-01-17T11:24:41.602Z,11.70
2023-01-17T11:27:28.153Z,5.63
2023-01-17T11:32:57.611Z,5.50
2023-01-17T11:35:27.461Z,6.57
2023-01-17T11:38:12.087Z,8.32
2023-01-17T11:40:47.851Z,3.85
2023-01-17T11:43:26.835Z,7.32
2023-01-17T11:46:05.549Z,6.32
2023-01-17T11:48:38.270Z,5.32
2023-01-17T11:51:19.559Z,2.90
2023-01-17T11:53:48.273Z,2.63
2023-01-17T11:56:36.667Z,4.68
2023-01-17T11:59:15.855Z,3.92
2023-01-17T12:01:55.824Z,2.60
2023-01-17T12:04:41.257Z,2.75
2023-01-17T12:07:20.531Z,3.20
2023-01-17T12:10:08.732Z,3.97
2023-01-17T12:13:35.277Z,4.32
2023-01-17T12:16:39.081Z,4.13
2023-01-17T12:19:18.528Z,2.92
2023-01-17T12:22:00.290Z,3.67
2023-01-17T12:24:54.794Z,3.40
2023-01-17T12:27:30.938Z,2.65
2023-01-17T12:30:20.875Z,4.97
2023-01-17T12:33:11.334Z,2.30
2023-01-17T12:35:59.358Z,3.20
2023-01-17T12:38:38.603Z,4.68
2023-01-17T12:41:18.573Z,4.28
2023-01-17T12:43:46.226Z,1.90
2023-01-17T12:46:23.950Z,4.55
2023-01-17T12:49:02.925Z,5.45
2023-01-17T12:51:43.174Z,5.47
2023-01-17T12:54:27.576Z,3.60
2023-01-17T12:57:01.164Z,4.82
2023-01-17T12:59:30.714Z,2.63
2023-01-17T13:02:01.378Z,5.43
2023-01-17T13:04:57.366Z,2.75
2023-01-17T13:07:37.172Z,3.75
2023-01-17T13:10:32.051Z,2.58
2023-01-17T13:13:04.929Z,3.40
2023-01-17T13:15:39.417Z,1.83
2023-01-17T13:18:22.738Z,1.70
2023-01-17T13:20:53.736Z,2.95
2023-01-17T13:23:33.922Z,2.90
2023-01-17T13:26:03.177Z,1.65
2023-01-17T13:28:57.920Z,2.10
2023-01-17T13:31:33.012Z,1.95
2023-01-17T13:34:14.981Z,4.25
2023-01-17T13:37:18.412Z,1.60
2023-01-17T13:40:12.875Z,1.17
2023-01-17T13:43:04.120Z,1.48
2023-01-17T13:45:36.652Z,4.72
2023-01-17T13:48:12.768Z,1.33
2023-01-17T13:53:34.974Z,1.83
2023-01-17T13:56:18.851Z,1.67
2023-01-17T13:58:54.459Z,2.80
2023-01-17T14:01:24.429Z,1.85
2023-01-17T14:03:54.370Z,5.32
2023-01-17T14:06:36.077Z,1.75
2023-01-17T14:09:10.935Z,1.33
2023-01-17T14:12:08.974Z,1.50
2023-01-17T14:14:42.077Z,1.40
2023-01-17T14:17:23.146Z,2.92
2023-01-17T14:19:50.999Z,1.42
2023-01-17T14:22:20.620Z,2.20
2023-01-17T14:25:09.706Z,1.55
2023-01-17T14:27:42.544Z,3.17
2023-01-17T14:30:33.940Z,1.50
2023-01-17T14:33:01.106Z,2.50
2023-01-17T14:35:37.124Z,6.43
2023-01-17T14:40:39.088Z,1.60
2023-01-17T14:43:09.699Z,1.50
2023-01-17T14:45:37.689Z,2.03
2023-01-17T14:48:21.531Z,1.98
2023-01-17T14:50:50.470Z,2.00
2023-01-17T14:53:20.978Z,2.75
2023-01-17T14:55:47.841Z,4.53
2023-01-17T14:58:22.503Z,2.13
2023-01-17T15:00:55.150Z,3.13
2023-01-17T15:03:22.670Z,2.22
2023-01-17T15:05:52.969Z,2.53
2023-01-17T15:08:28.832Z,2.35
2023-01-17T15:11:05.364Z,3.10
2023-01-17T15:13:49.432Z,4.00
2023-01-17T15:16:33.314Z,2.60
2023-01-17T15:19:01.128Z,5.20
2023-01-17T15:21:33.918Z,5.57
2023-01-17T15:24:03.795Z,6.65
2023-01-17T15:26:34.500Z,2.55
2023-01-17T15:29:11.408Z,2.60
2023-01-17T15:31:49.521Z,2.17
2023-01-17T15:34:43.629Z,2.85
2023-01-17T15:37:30.340Z,2.28
2023-01-17T15:40:06.093Z,3.55
2023-01-17T15:42:36.147Z,4.25
2023-01-17T15:45:06.807Z,4.60
2023-01-17T15:47:38.856Z,2.38
2023-01-17T15:50:24.839Z,3.05
2023-01-17T15:52:54.106Z,2.05
2023-01-17T15:55:29.619Z,2.60
2023-01-17T15:57:56.580Z,6.15
2023-01-17T16:00:32.742Z,3.90
2023-01-17T16:02:59.911Z,2.47
2023-01-17T16:05:27.847Z,2.67
2023-01-17T16:08:25.812Z,4.43
2023-01-17T16:11:02.173Z,2.88
2023-01-17T16:13:32.011Z,2.20
2023-01-17T16:16:21.937Z,1.70
2023-01-17T16:18:51.409Z,2.15
2023-01-17T16:21:29.965Z,2.30
2023-01-17T16:23:57.222Z,2.95
2023-01-17T16:26:24.702Z,2.13
2023-01-17T16:28:51.946Z,2.97
2023-01-17T16:31:19.087Z,2.83
2023-01-17T16:33:49.005Z,4.53
2023-01-17T16:36:16.841Z,3.20
2023-01-17T16:38:45.252Z,2.55
2023-01-17T16:41:12.348Z,2.67
2023-01-17T16:43:39.438Z,3.08
2023-01-17T16:46:06.704Z,6.43
2023-01-17T16:48:33.772Z,2.20
2023-01-17T16:51:06.438Z,2.72
2023-01-17T16:53:33.330Z,3.08
2023-01-17T16:56:08.785Z,3.83
2023-01-17T16:58:35.634Z,3.97
2023-01-17T17:01:02.637Z,3.88
2023-01-17T17:03:29.738Z,5.18
2023-01-17T17:06:00.965Z,3.08
2023-01-17T17:08:31.119Z,2.50
2023-01-17T17:11:15.698Z,7.30
2023-01-17T17:13:47.992Z,5.97
2023-01-17T17:16:21.209Z,5.95
2023-01-17T17:18:55.794Z,5.47
2023-01-17T17:21:22.683Z,3.60
2023-01-17T17:23:56.546Z,4.70
2023-01-17T17:26:24.784Z,3.42
2023-01-17T17:28:52.964Z,4.47
2023-01-17T17:31:20.821Z,5.43
2023-01-17T17:33:47.789Z,5.65
2023-01-17T17:36:15.125Z,6.47
2023-01-17T17:38:51.097Z,7.18
2023-01-17T17:41:20.142Z,7.07
2023-01-17T17:43:47.007Z,6.43
2023-01-17T17:46:14.138Z,7.68
2023-01-17T17:48:41.043Z,12.60
2023-01-17T17:51:07.864Z,7.80
2023-01-17T17:53:34.885Z,15.30
2023-01-17T17:56:06.466Z,7.60
2023-01-17T17:58:36.065Z,8.43
2023-01-17T18:01:04.859Z,6.45
2023-01-17T18:03:32.296Z,6.63
2023-01-17T18:06:13.075Z,8.05
2023-01-17T18:08:39.986Z,6.25
2023-01-17T18:11:11.247Z,6.35
2023-01-17T18:13:39.069Z,11.90
2023-01-17T18:16:08.867Z,9.32
2023-01-17T18:18:37.880Z,11.30
2023-01-17T18:21:25.788Z,7.70
2023-01-17T18:23:58.803Z,5.60
2023-01-17T18:26:50.096Z,11.93
2023-01-17T18:29:18.431Z,7.80
2023-01-17T18:31:46.747Z,5.93
2023-01-17T18:34:21.244Z,10.73
2023-01-17T18:36:48.223Z,6.75
2023-01-17T18:39:21.386Z,4.80
2023-01-17T18:41:49.423Z,7.38
2023-01-17T18:44:17.036Z,6.05
2023-01-17T18:46:44.241Z,5.97
2023-01-17T18:49:12.287Z,7.05
2023-01-17T18:51:39.451Z,10.40
2023-01-17T18:54:08.900Z,6.68
2023-01-17T18:56:36.295Z,10.82
2023-01-17T18:59:09.003Z,7.38
2023-01-17T19:01:36.708Z,6.93
2023-01-17T19:04:05.156Z,12.05
2023-01-17T19:06:34.651Z,6.85
2023-01-17T19:09:02.653Z,7.00
2023-01-17T19:11:29.591Z,11.25
2023-01-17T19:13:57.004Z,6.63
2023-01-17T19:16:30.007Z,5.90
2023-01-17T19:19:01.557Z,6.15
2023-01-17T19:21:29.118Z,8.82
2023-01-17T19:23:57.611Z,8.93
2023-01-17T19:26:27.142Z,13.77
2023-01-17T19:29:05.193Z,10.02
2023-01-17T19:31:36.607Z,7.95
2023-01-17T19:34:03.545Z,9.73
2023-01-17T19:36:37.469Z,8.05
2023-01-17T19:39:06.790Z,9.25
2023-01-17T19:41:36.047Z,12.07
2023-01-17T19:44:05.960Z,7.47
2023-01-17T19:46:33.368Z,10.48
2023-01-17T19:49:01.071Z,9.13
2023-01-17T19:51:28.804Z,7.60
2023-01-17T19:53:56.895Z,11.55
2023-01-17T19:56:25.918Z,7.60
2023-01-17T19:58:54.121Z,6.95
2023-01-17T20:01:25.429Z,7.93
2023-01-17T20:03:52.837Z,8.10
2023-01-17T20:06:22.665Z,6.85
2023-01-17T20:08:49.498Z,8.70
2023-01-17T20:11:19.713Z,5.68
2023-01-17T20:13:48.090Z,6.00
2023-01-17T20:16:16.304Z,8.43
2023-01-17T20:18:43.660Z,6.72
2023-01-17T20:21:19.120Z,6.32
2023-01-17T20:23:47.843Z,8.57
2023-01-17T20:26:20.824Z,16.33
2023-01-17T20:28:49.742Z,17.58
2023-01-17T20:31:20.547Z,16.95
2023-01-17T20:33:50.501Z,11.95
2023-01-17T20:36:19.805Z,13.93
2023-01-17T20:38:48.635Z,11.23
2023-01-17T20:41:18.285Z,11.20
2023-01-17T20:43:50.608Z,12.40
2023-01-17T20:46:20.353Z,9.52
2023-01-17T20:48:50.321Z,9.57
2023-01-17T20:51:18.545Z,7.70
2023-01-17T20:53:46.623Z,7.18
2023-01-17T20:56:15.451Z,7.38
2023-01-17T20:58:42.769Z,12.02
2023-01-17T21:01:12.494Z,7.63
2023-01-17T21:03:39.800Z,6.82
2023-01-17T21:06:13.744Z,12.10
2023-01-17T21:08:43.063Z,8.02
2023-01-17T21:11:12.406Z,7.05
2023-01-17T21:13:40.270Z,9.18
2023-01-17T21:16:09.339Z,10.57
2023-01-17T21:18:36.593Z,7.40
2023-01-17T21:21:05.742Z,7.70
2023-01-17T21:23:33.767Z,7.45
2023-01-17T21:26:00.650Z,11.82
2023-01-17T21:28:35.141Z,8.50
2023-01-17T21:31:19.501Z,7.80
2023-01-17T21:33:51.704Z,10.05
2023-01-17T21:36:20.893Z,7.13
2023-01-17T21:38:52.114Z,10.10
2023-01-17T21:41:20.683Z,8.05
2023-01-17T21:43:48.511Z,6.38
2023-01-17T21:46:15.510Z,8.35
2023-01-17T21:48:44.440Z,6.22
2023-01-17T21:51:11.336Z,9.02
2023-01-17T21:53:39.811Z,8.85
2023-01-17T21:56:29.209Z,7.97
2023-01-17T21:58:57.534Z,9.45
2023-01-17T22:01:27.573Z,9.80
2023-01-17T22:03:56.011Z,6.97
2023-01-17T22:06:25.586Z,8.52
2023-01-17T22:08:52.452Z,9.63
2023-01-17T22:11:23.004Z,9.07
2023-01-17T22:13:50.266Z,7.47
2023-01-17T22:16:19.571Z,8.70
2023-01-17T22:18:46.782Z,9.65
2023-01-17T22:21:20.461Z,6.70
2023-01-17T22:23:49.648Z,7.13
2023-01-17T22:26:16.616Z,7.53
2023-01-17T22:28:44.130Z,8.57
2023-01-17T22:31:20.860Z,6.32
2023-01-17T22:33:52.075Z,6.78
2023-01-17T22:36:20.180Z,4.85
2023-01-17T22:38:47.090Z,5.28
2023-01-17T22:41:16.429Z,5.55
2023-01-17T22:43:48.305Z,6.68
2023-01-17T22:46:18.810Z,5.93
2023-01-17T22:48:46.174Z,6.40
2023-01-17T22:51:15.323Z,6.28
2023-01-17T22:53:44.175Z,5.63
2023-01-17T22:56:13.579Z,8.27
2023-01-17T22:58:45.012Z,5.57
2023-01-17T23:01:14.354Z,5.20
2023-01-17T23:03:41.960Z,8.57
2023-01-17T23:06:16.333Z,7.13
2023-01-17T23:08:45.954Z,5.60
2023-01-17T23:11:40.866Z,4.20
2023-01-17T23:14:18.055Z,6.90
2023-01-17T23:17:07.818Z,7.47
2023-01-17T23:19:49.554Z,6.25
2023-01-17T23:22:30.182Z,5.20
2023-01-17T23:25:08.638Z,7.40
2023-01-17T23:27:57.208Z,5.28
2023-01-17T23:30:35.979Z,4.43
2023-01-17T23:33:05.496Z,6.05
2023-01-17T23:35:34.617Z,5.43
2023-01-17T23:38:20.242Z,5.03
2023-01-17T23:41:06.079Z,5.60
2023-01-17T23:43:33.414Z,4.13
2023-01-17T23:46:00.757Z,4.45
2023-01-17T23:48:27.833Z,5.78
2023-01-17T23:50:59.662Z,7.15
2023-01-17T23:53:27.391Z,8.40
2023-01-17T23:55:56.498Z,5.63
2023-01-17T23:58:25.458Z,4.30
